createdAt,value
2023-01-11T00:02:05.780Z,1.83
2023-01-11T00:04:33.243Z,1.10
2023-01-11T00:07:00.669Z,2.90
2023-01-11T00:09:28.635Z,1.00
2023-01-11T00:11:57.027Z,1.73
2023-01-11T00:14:24.491Z,1.20
2023-01-11T00:16:51.889Z,1.20
2023-01-11T00:19:19.202Z,1.05
2023-01-11T00:21:49.669Z,1.08
2023-01-11T00:24:16.949Z,1.27
2023-01-11T00:26:44.847Z,1.45
2023-01-11T00:29:12.399Z,1.70
2023-01-11T00:31:39.757Z,2.92
2023-01-11T00:34:07.016Z,1.83
2023-01-11T00:36:35.006Z,1.50
2023-01-11T00:39:02.903Z,1.50
2023-01-11T00:41:48.530Z,0.88
2023-01-11T00:44:36.812Z,1.35
2023-01-11T00:47:23.580Z,1.27
2023-01-11T00:49:50.719Z,0.73
2023-01-11T00:52:17.749Z,0.90
2023-01-11T00:54:45.092Z,1.38
2023-01-11T00:57:12.409Z,1.27
2023-01-11T00:59:40.697Z,2.38
2023-01-11T01:02:10.168Z,0.52
2023-01-11T01:04:38.365Z,2.67
2023-01-11T01:07:05.891Z,1.77
2023-01-11T01:09:33.783Z,3.13
2023-01-11T01:12:04.687Z,2.00
2023-01-11T01:14:33.487Z,1.33
2023-01-11T01:17:03.757Z,1.63
2023-01-11T01:19:31.905Z,1.50
2023-01-11T01:21:59.972Z,2.42
2023-01-11T01:24:31.303Z,1.10
2023-01-11T01:26:59.276Z,1.08
2023-01-11T01:29:26.545Z,1.38
2023-01-11T01:31:54.023Z,1.50
2023-01-11T01:34:21.387Z,2.10
2023-01-11T01:36:48.545Z,1.15
2023-01-11T01:39:15.723Z,2.00
2023-01-11T01:41:43.085Z,1.20
2023-01-11T01:44:47.441Z,1.30
2023-01-11T01:47:15.775Z,1.10
2023-01-11T01:49:45.240Z,2.08
2023-01-11T01:52:13.416Z,1.05
2023-01-11T01:54:45.073Z,1.85
2023-01-11T01:57:19.508Z,1.42
2023-01-11T01:59:52.092Z,1.23
2023-01-11T02:02:24.902Z,0.95
2023-01-11T02:04:54.806Z,1.60
2023-01-11T02:07:31.124Z,1.30
2023-01-11T02:10:09.909Z,1.55
2023-01-11T02:12:57.455Z,2.33
2023-01-11T02:15:25.568Z,1.83
2023-01-11T02:17:52.600Z,1.55
2023-01-11T02:20:43.982Z,1.65
2023-01-11T02:23:48.050Z,1.35
2023-01-11T02:26:45.856Z,1.02
2023-01-11T02:29:15.631Z,2.67
2023-01-11T02:32:17.321Z,0.50
2023-01-11T02:34:47.354Z,1.33
2023-01-11T02:37:43.837Z,1.58
2023-01-11T02:40:17.427Z,0.68
2023-01-11T02:43:09.295Z,1.23
2023-01-11T02:45:54.830Z,1.27
2023-01-11T02:49:04.176Z,0.55
2023-01-11T02:52:00.653Z,1.50
2023-01-11T02:54:29.448Z,1.20
2023-01-11T02:57:00.748Z,0.80
2023-01-11T02:59:33.536Z,1.92
2023-01-11T03:02:01.122Z,1.42
2023-01-11T03:04:37.105Z,1.00
2023-01-11T03:07:32.541Z,0.75
2023-01-11T03:10:20.561Z,1.52
2023-01-11T03:13:16.152Z,1.15
2023-01-11T03:16:08.796Z,0.93
2023-01-11T03:18:48.267Z,0.95
2023-01-11T03:21:24.678Z,1.48
2023-01-11T03:24:13.744Z,0.75
2023-01-11T03:26:40.965Z,0.82
2023-01-11T03:29:10.694Z,0.90
2023-01-11T03:32:16.597Z,0.90
2023-01-11T03:34:49.843Z,2.63
2023-01-11T03:37:42.344Z,1.45
2023-01-11T03:40:18.397Z,1.23
2023-01-11T03:43:08.850Z,0.80
2023-01-11T03:45:43.976Z,1.42
2023-01-11T03:48:18.078Z,1.23
2023-01-11T03:50:48.443Z,0.57
2023-01-11T03:53:18.632Z,0.90
2023-01-11T03:55:49.814Z,1.75
2023-01-11T03:58:16.972Z,1.42
2023-01-11T04:00:44.864Z,1.05
2023-01-11T04:03:12.919Z,1.52
2023-01-11T04:05:43.928Z,0.80
2023-01-11T04:08:11.799Z,0.73
2023-01-11T04:10:39.514Z,1.85
2023-01-11T04:13:06.547Z,1.08
2023-01-11T04:15:35.068Z,0.57
2023-01-11T04:18:05.993Z,1.00
2023-01-11T04:20:35.943Z,1.58
2023-01-11T04:23:04.376Z,0.85
2023-01-11T04:25:31.615Z,1.65
2023-01-11T04:27:58.994Z,1.15
2023-01-11T04:30:27.185Z,2.15
2023-01-11T04:32:54.406Z,0.63
2023-01-11T04:35:21.749Z,1.30
2023-01-11T04:37:49.307Z,1.08
2023-01-11T04:40:16.839Z,0.98
2023-01-11T04:42:47.007Z,1.30
2023-01-11T04:45:17.423Z,1.95
2023-01-11T04:47:44.675Z,1.77
2023-01-11T04:50:12.165Z,1.27
2023-01-11T04:52:41.872Z,1.70
2023-01-11T04:55:09.780Z,1.60
2023-01-11T04:57:36.878Z,0.55
2023-01-11T05:00:10.845Z,1.58
2023-01-11T05:02:41.154Z,1.75
2023-01-11T05:05:10.359Z,1.30
2023-01-11T05:07:39.053Z,0.75
2023-01-11T05:10:06.672Z,0.90
2023-01-11T05:12:34.561Z,1.58
2023-01-11T05:15:01.665Z,1.42
2023-01-11T05:17:28.836Z,1.92
2023-01-11T05:19:55.983Z,1.15
2023-01-11T05:22:23.213Z,1.02
2023-01-11T05:24:50.213Z,1.35
2023-01-11T05:27:17.295Z,0.82
2023-01-11T05:29:44.626Z,0.75
2023-01-11T05:32:12.829Z,1.98
2023-01-11T05:34:40.965Z,1.25
2023-01-11T05:37:08.244Z,1.10
2023-01-11T05:39:35.524Z,2.53
2023-01-11T05:42:02.467Z,1.23
2023-01-11T05:44:48.185Z,1.13
2023-01-11T05:47:15.863Z,1.20
2023-01-11T05:49:43.694Z,1.15
2023-01-11T05:52:11.387Z,1.75
2023-01-11T05:54:38.659Z,1.05
2023-01-11T05:57:10.808Z,1.25
2023-01-11T05:59:38.536Z,1.50
2023-01-11T06:02:06.281Z,1.33
2023-01-11T06:04:33.753Z,3.20
2023-01-11T06:07:00.927Z,0.60
2023-01-11T06:09:28.679Z,1.02
2023-01-11T06:11:56.100Z,2.22
2023-01-11T06:14:23.456Z,1.17
2023-01-11T06:16:50.524Z,2.03
2023-01-11T06:19:18.347Z,0.68
2023-01-11T06:21:45.661Z,0.63
2023-01-11T06:24:13.032Z,1.20
2023-01-11T06:26:40.506Z,0.68
2023-01-11T06:29:07.955Z,1.88
2023-01-11T06:31:35.274Z,0.88
2023-01-11T06:34:02.522Z,0.50
2023-01-11T06:36:29.926Z,0.60
2023-01-11T06:38:57.364Z,2.45
2023-01-11T06:41:24.777Z,0.93
2023-01-11T06:43:51.964Z,2.50
2023-01-11T06:46:19.911Z,2.38
2023-01-11T06:48:48.029Z,1.45
2023-01-11T06:51:16.932Z,1.05
2023-01-11T06:53:46.642Z,1.70
2023-01-11T06:56:19.219Z,1.55
2023-01-11T07:01:17.435Z,1.58
2023-01-11T07:03:45.657Z,1.98
2023-01-11T07:06:13.970Z,4.07
2023-01-11T07:08:42.934Z,3.58
2023-01-11T07:11:10.315Z,1.00
2023-01-11T07:13:38.756Z,1.48
2023-01-11T07:16:06.601Z,2.97
2023-01-11T07:18:34.224Z,3.70
2023-01-11T07:21:02.702Z,2.22
2023-01-11T07:23:29.798Z,3.63
2023-01-11T07:25:57.591Z,1.70
2023-01-11T07:28:24.873Z,2.40
2023-01-11T07:30:58.512Z,3.38
2023-01-11T07:33:27.088Z,3.83
2023-01-11T07:35:55.440Z,1.67
2023-01-11T07:38:23.349Z,1.92
2023-01-11T07:40:51.252Z,1.42
2023-01-11T07:43:20.665Z,1.63
2023-01-11T07:45:50.198Z,1.33
2023-01-11T07:48:25.518Z,2.17
2023-01-11T07:50:56.467Z,0.93
2023-01-11T07:53:26.788Z,0.90
2023-01-11T07:55:58.359Z,2.33
2023-01-11T07:58:26.018Z,1.52
2023-01-11T08:00:53.813Z,1.30
2023-01-11T08:03:22.314Z,1.13
2023-01-11T08:05:52.140Z,1.67
2023-01-11T08:08:20.480Z,2.67
2023-01-11T08:11:08.481Z,2.15
2023-01-11T08:13:54.654Z,1.45
2023-01-11T08:16:22.151Z,2.38
2023-01-11T08:18:51.562Z,1.67
2023-01-11T08:21:19.553Z,2.05
2023-01-11T08:23:47.289Z,1.55
2023-01-11T08:26:18.997Z,1.80
2023-01-11T08:28:47.328Z,1.67
2023-01-11T08:31:14.926Z,1.95
2023-01-11T08:33:42.110Z,1.33
2023-01-11T08:36:11.937Z,1.40
2023-01-11T08:38:39.279Z,1.67
2023-01-11T08:41:14.620Z,1.33
2023-01-11T08:43:42.974Z,1.70
2023-01-11T08:46:10.473Z,0.70
2023-01-11T08:48:37.384Z,1.13
2023-01-11T08:51:04.649Z,0.82
2023-01-11T08:53:32.267Z,1.35
2023-01-11T08:56:00.130Z,2.67
2023-01-11T08:58:28.278Z,3.83
2023-01-11T09:01:00.233Z,3.30
2023-01-11T09:03:29.102Z,3.30
2023-01-11T09:05:59.574Z,1.95
2023-01-11T09:08:28.099Z,2.17
2023-01-11T09:11:00.446Z,2.78
2023-01-11T09:13:28.105Z,2.50
2023-01-11T09:15:57.371Z,0.93
2023-01-11T09:18:27.341Z,1.60
2023-01-11T09:20:55.320Z,1.15
2023-01-11T09:23:22.822Z,1.25
2023-01-11T09:25:51.510Z,2.60
2023-01-11T09:28:18.945Z,1.63
2023-01-11T09:30:46.271Z,1.25
2023-01-11T09:33:13.715Z,1.33
2023-01-11T09:35:42.702Z,1.52
2023-01-11T09:38:10.250Z,1.88
2023-01-11T09:41:00.762Z,2.50
2023-01-11T09:43:31.165Z,1.25
2023-01-11T09:46:08.666Z,3.67
2023-01-11T09:48:52.783Z,1.77
2023-01-11T09:51:21.020Z,1.70
2023-01-11T09:53:51.114Z,2.33
2023-01-11T09:56:48.129Z,2.97
2023-01-11T09:59:27.204Z,2.25
2023-01-11T10:02:28.597Z,1.73
2023-01-11T10:05:47.057Z,2.70
2023-01-11T10:18:28.388Z,3.20
2023-01-11T10:18:30.455Z,2.70
2023-01-11T10:21:13.840Z,2.78
2023-01-11T10:23:59.044Z,2.70
2023-01-11T10:26:32.980Z,1.77
2023-01-11T10:29:19.440Z,4.03
2023-01-11T10:32:39.663Z,3.58
2023-01-11T10:35:48.244Z,3.67
2023-01-11T10:39:20.044Z,2.00
2023-01-11T10:42:12.555Z,1.70
2023-01-11T10:45:00.994Z,3.92
2023-01-11T10:47:44.042Z,1.30
2023-01-11T10:50:59.230Z,2.53
2023-01-11T10:53:39.758Z,3.85
2023-01-11T10:56:30.228Z,4.47
2023-01-11T10:59:25.713Z,4.72
2023-01-11T11:02:23.039Z,3.45
2023-01-11T11:04:55.511Z,4.15
2023-01-11T11:07:39.943Z,5.45
2023-01-11T11:10:24.995Z,3.30
2023-01-11T11:12:59.952Z,2.35
2023-01-11T11:16:12.629Z,3.20
2023-01-11T11:18:42.322Z,2.30
2023-01-11T11:21:33.403Z,2.58
2023-01-11T11:24:17.678Z,6.45
2023-01-11T11:26:51.607Z,2.55
2023-01-11T11:29:29.281Z,2.58
2023-01-11T11:32:00.668Z,3.00
2023-01-11T11:34:29.229Z,3.10
2023-01-11T11:37:00.186Z,2.92
2023-01-11T11:39:32.075Z,3.03
2023-01-11T11:42:17.049Z,6.10
2023-01-11T11:44:44.758Z,4.03
2023-01-11T11:47:16.970Z,3.70
2023-01-11T11:49:44.716Z,3.53
2023-01-11T11:52:18.262Z,3.60
2023-01-11T11:54:56.926Z,3.72
2023-01-11T11:57:30.021Z,2.00
2023-01-11T12:00:08.174Z,2.08
2023-01-11T12:02:44.201Z,4.32
2023-01-11T12:05:16.141Z,4.18
2023-01-11T12:07:54.624Z,3.27
2023-01-11T12:10:32.670Z,5.03
2023-01-11T12:13:02.786Z,1.80
2023-01-11T12:15:32.968Z,3.10
2023-01-11T12:18:19.030Z,3.30
2023-01-11T12:20:47.944Z,3.72
2023-01-11T12:23:21.972Z,4.00
2023-01-11T12:26:07.562Z,4.20
2023-01-11T12:28:54.368Z,2.22
2023-01-11T12:31:31.424Z,3.53
2023-01-11T12:34:14.784Z,2.90
2023-01-11T12:37:10.219Z,4.53
2023-01-11T12:39:48.705Z,4.22
2023-01-11T12:43:14.700Z,3.42
2023-01-11T12:46:07.651Z,2.33
2023-01-11T12:48:57.050Z,2.90
2023-01-11T12:51:44.574Z,1.80
2023-01-11T12:54:33.732Z,2.50
2023-01-11T12:57:12.355Z,2.85
2023-01-11T13:00:10.727Z,3.67
2023-01-11T13:02:59.709Z,3.90
2023-01-11T13:05:38.871Z,4.70
2023-01-11T13:08:10.832Z,3.75
2023-01-11T13:10:50.363Z,2.55
2023-01-11T13:13:28.164Z,2.55
2023-01-11T13:16:18.220Z,3.20
2023-01-11T13:19:00.128Z,2.97
2023-01-11T13:21:44.840Z,2.97
2023-01-11T13:24:25.865Z,2.90
2023-01-11T13:27:00.483Z,2.42
2023-01-11T13:29:32.437Z,4.25
2023-01-11T13:32:04.451Z,2.42
2023-01-11T13:34:48.650Z,1.63
2023-01-11T13:37:26.694Z,2.42
2023-01-11T13:40:02.440Z,4.53
2023-01-11T13:42:48.510Z,6.15
2023-01-11T13:45:18.771Z,3.10
2023-01-11T13:48:01.021Z,4.28
2023-01-11T13:50:44.760Z,2.97
2023-01-11T13:53:28.718Z,5.03
2023-01-11T13:56:13.448Z,5.75
2023-01-11T13:59:12.121Z,8.63
2023-01-11T14:01:56.245Z,2.60
2023-01-11T14:04:33.221Z,6.20
2023-01-11T14:10:21.377Z,9.30
2023-01-11T14:13:07.138Z,5.93
2023-01-11T14:16:05.290Z,7.65
2023-01-11T14:19:06.162Z,3.78
2023-01-11T14:21:54.129Z,2.55
2023-01-11T14:24:23.244Z,2.97
2023-01-11T14:27:17.188Z,2.40
2023-01-11T14:29:52.098Z,2.55
2023-01-11T14:32:42.685Z,3.60
2023-01-11T14:35:44.616Z,3.08
2023-01-11T14:38:25.124Z,3.70
2023-01-11T14:41:11.689Z,1.52
2023-01-11T14:43:39.146Z,3.97
2023-01-11T14:46:35.574Z,2.45
2023-01-11T14:49:40.254Z,3.30
2023-01-11T14:52:34.520Z,3.67
2023-01-11T14:55:17.517Z,3.83
2023-01-11T14:58:02.060Z,3.28
2023-01-11T15:00:29.405Z,4.55
2023-01-11T15:03:02.048Z,4.70
2023-01-11T15:05:33.013Z,6.05
2023-01-11T15:08:15.774Z,5.55
2023-01-11T15:11:05.628Z,5.68
2023-01-11T15:13:57.658Z,9.13
2023-01-11T15:16:49.512Z,11.45
2023-01-11T15:19:29.568Z,8.00
2023-01-11T15:21:58.694Z,3.42
2023-01-11T15:24:40.700Z,4.57
2023-01-11T15:27:22.902Z,4.90
2023-01-11T15:29:56.641Z,2.47
2023-01-11T15:32:28.156Z,3.38
2023-01-11T15:35:17.959Z,3.10
2023-01-11T15:37:59.068Z,2.70
2023-01-11T15:40:29.419Z,4.10
2023-01-11T15:43:18.362Z,4.82
2023-01-11T15:46:26.488Z,3.25
2023-01-11T15:49:12.382Z,3.97
2023-01-11T15:52:04.196Z,4.75
2023-01-11T15:55:22.347Z,3.60
2023-01-11T15:57:58.494Z,3.83
2023-01-11T16:00:50.608Z,2.97
2023-01-11T16:03:30.614Z,4.28
2023-01-11T16:06:13.210Z,3.88
2023-01-11T16:11:27.136Z,3.30
2023-01-11T16:13:59.948Z,5.25
2023-01-11T16:16:40.403Z,4.25
2023-01-11T16:19:13.547Z,2.92
2023-01-11T16:21:42.356Z,5.13
2023-01-11T16:24:15.317Z,6.15
2023-01-11T16:26:42.676Z,5.55
2023-01-11T16:29:31.325Z,6.88
2023-01-11T16:32:03.271Z,3.85
2023-01-11T16:34:42.811Z,4.70
2023-01-11T16:37:35.505Z,5.82
2023-01-11T16:40:14.561Z,6.78
2023-01-11T16:42:49.182Z,7.10
2023-01-11T16:45:24.900Z,5.45
2023-01-11T16:48:14.004Z,7.82
2023-01-11T16:51:15.145Z,6.13
2023-01-11T16:53:45.286Z,5.53
2023-01-11T16:56:22.639Z,5.38
2023-01-11T16:59:14.563Z,3.85
2023-01-11T17:02:00.039Z,3.72
2023-01-11T17:04:33.118Z,5.47
2023-01-11T17:07:42.072Z,4.13
2023-01-11T17:10:28.205Z,5.32
2023-01-11T17:13:36.946Z,3.80
2023-01-11T17:16:10.864Z,5.03
2023-01-11T17:18:40.675Z,1.70
2023-01-11T17:21:15.363Z,2.83
2023-01-11T17:23:44.997Z,3.85
2023-01-11T17:26:23.275Z,4.07
2023-01-11T17:28:56.011Z,4.97
2023-01-11T17:31:42.050Z,2.92
2023-01-11T17:34:23.392Z,2.22
2023-01-11T17:36:51.127Z,4.63
2023-01-11T17:39:24.680Z,2.50
2023-01-11T17:42:11.028Z,1.83
2023-01-11T17:44:57.185Z,2.33
2023-01-11T17:47:25.081Z,1.63
2023-01-11T17:49:59.634Z,2.35
2023-01-11T17:52:28.098Z,1.88
2023-01-11T17:55:04.709Z,4.40
2023-01-11T17:57:31.875Z,2.70
2023-01-11T18:00:25.858Z,2.08
2023-01-11T18:02:54.044Z,3.25
2023-01-11T18:05:27.249Z,2.60
2023-01-11T18:07:59.298Z,2.72
2023-01-11T18:10:30.620Z,2.25
2023-01-11T18:12:59.881Z,3.42
2023-01-11T18:15:28.280Z,3.13
2023-01-11T18:17:57.264Z,3.53
2023-01-11T18:20:33.277Z,2.33
2023-01-11T18:23:08.095Z,1.85
2023-01-11T18:25:35.511Z,2.97
2023-01-11T18:28:11.289Z,2.65
2023-01-11T18:30:53.951Z,3.60
2023-01-11T18:33:25.350Z,2.47
2023-01-11T18:35:59.935Z,2.50
2023-01-11T18:38:32.067Z,1.73
2023-01-11T18:41:25.223Z,3.15
2023-01-11T18:46:20.264Z,1.92
2023-01-11T18:48:47.676Z,2.25
2023-01-11T18:51:22.259Z,1.95
2023-01-11T18:53:49.210Z,0.80
2023-01-11T18:56:16.765Z,1.98
2023-01-11T18:58:43.559Z,0.98
2023-01-11T19:01:11.097Z,1.80
2023-01-11T19:03:38.735Z,2.08
2023-01-11T19:06:06.956Z,3.05
2023-01-11T19:08:34.095Z,4.40
2023-01-11T19:11:03.195Z,3.33
2023-01-11T19:13:30.892Z,3.53
2023-01-11T19:16:00.991Z,3.28
2023-01-11T19:18:29.171Z,1.85
2023-01-11T19:21:02.673Z,2.55
2023-01-11T19:23:31.016Z,2.90
2023-01-11T19:26:00.197Z,2.22
2023-01-11T19:28:27.872Z,2.08
2023-01-11T19:30:54.956Z,2.95
2023-01-11T19:33:22.763Z,1.60
2023-01-11T19:35:49.948Z,2.78
2023-01-11T19:38:18.807Z,2.75
2023-01-11T19:40:47.957Z,2.38
2023-01-11T19:43:16.731Z,2.15
2023-01-11T19:45:43.928Z,3.13
2023-01-11T19:48:12.582Z,2.42
2023-01-11T19:50:39.847Z,2.17
2023-01-11T19:53:07.451Z,4.07
2023-01-11T19:55:34.924Z,1.75
2023-01-11T19:58:03.008Z,2.67
2023-01-11T20:00:30.362Z,2.33
2023-01-11T20:02:57.744Z,1.88
2023-01-11T20:05:24.818Z,3.20
2023-01-11T20:07:54.709Z,1.48
2023-01-11T20:10:21.958Z,2.35
2023-01-11T20:12:50.576Z,2.45
2023-01-11T20:15:17.897Z,1.70
2023-01-11T20:17:45.587Z,3.38
2023-01-11T20:20:15.069Z,4.47
2023-01-11T20:22:46.360Z,1.75
2023-01-11T20:25:13.833Z,1.77
2023-01-11T20:27:40.987Z,2.42
2023-01-11T20:30:08.990Z,2.45
2023-01-11T20:32:42.029Z,3.10
2023-01-11T20:35:10.719Z,3.50
2023-01-11T20:37:38.098Z,2.40
2023-01-11T20:40:06.225Z,1.45
2023-01-11T20:42:34.518Z,2.20
2023-01-11T20:45:01.825Z,1.42
2023-01-11T20:47:28.912Z,1.95
2023-01-11T20:49:56.593Z,2.00
2023-01-11T20:52:24.178Z,3.20
2023-01-11T20:54:51.509Z,2.38
2023-01-11T20:57:18.494Z,3.47
2023-01-11T20:59:45.793Z,2.25
2023-01-11T21:02:14.892Z,2.65
2023-01-11T21:04:42.120Z,2.10
2023-01-11T21:07:09.799Z,4.57
2023-01-11T21:09:37.658Z,2.85
2023-01-11T21:12:05.229Z,2.45
2023-01-11T21:14:32.749Z,2.25
2023-01-11T21:17:00.008Z,3.08
2023-01-11T21:19:27.248Z,2.90
2023-01-11T21:21:54.824Z,2.08
2023-01-11T21:24:22.041Z,2.10
2023-01-11T21:26:49.330Z,3.40
2023-01-11T21:29:16.712Z,2.50
2023-01-11T21:31:43.950Z,2.60
2023-01-11T21:34:12.931Z,2.17
2023-01-11T21:36:40.826Z,3.55
2023-01-11T21:39:09.647Z,1.67
2023-01-11T21:41:55.102Z,2.10
2023-01-11T21:44:27.216Z,3.00
2023-01-11T21:46:55.820Z,2.97
2023-01-11T21:49:24.840Z,2.97
2023-01-11T21:51:52.637Z,2.78
2023-01-11T21:54:19.814Z,2.58
2023-01-11T21:56:47.760Z,2.78
2023-01-11T21:59:17.357Z,2.92
2023-01-11T22:01:45.950Z,3.00
2023-01-11T22:04:15.866Z,2.85
2023-01-11T22:06:47.423Z,3.63
2023-01-11T22:09:14.773Z,2.25
2023-01-11T22:11:42.171Z,1.60
2023-01-11T22:14:09.532Z,2.25
2023-01-11T22:16:37.440Z,2.25
2023-01-11T22:19:07.504Z,1.85
2023-01-11T22:21:38.024Z,3.33
2023-01-11T22:24:07.891Z,2.33
2023-01-11T22:26:39.262Z,2.33
2023-01-11T22:29:16.773Z,1.70
2023-01-11T22:31:52.771Z,1.60
2023-01-11T22:34:22.072Z,1.65
2023-01-11T22:36:49.866Z,0.35
2023-01-11T22:39:19.528Z,2.15
2023-01-11T22:41:48.811Z,1.98
2023-01-11T22:44:18.362Z,1.48
2023-01-11T22:46:45.687Z,2.30
2023-01-11T22:49:13.684Z,2.25
2023-01-11T22:51:42.769Z,3.00
2023-01-11T22:54:11.274Z,2.05
2023-01-11T22:56:38.380Z,1.52
2023-01-11T22:59:05.741Z,3.22
2023-01-11T23:01:35.120Z,3.13
2023-01-11T23:04:02.938Z,2.05
2023-01-11T23:06:32.656Z,1.58
2023-01-11T23:09:00.800Z,2.17
2023-01-11T23:11:48.936Z,1.83
2023-01-11T23:14:18.926Z,2.00
2023-01-11T23:16:47.229Z,3.20
2023-01-11T23:19:20.583Z,1.42
2023-01-11T23:21:48.233Z,1.45
2023-01-11T23:24:16.691Z,0.82
2023-01-11T23:26:45.573Z,1.55
2023-01-11T23:29:13.274Z,1.38
2023-01-11T23:31:41.633Z,1.13
2023-01-11T23:34:10.056Z,2.30
2023-01-11T23:36:41.085Z,1.23
2023-01-11T23:39:12.900Z,1.35
2023-01-11T23:41:58.537Z,2.38
2023-01-11T23:44:26.223Z,0.30
2023-01-11T23:47:12.266Z,1.45
2023-01-11T23:49:39.473Z,0.45
2023-01-11T23:52:06.908Z,2.00
2023-01-11T23:54:34.488Z,2.45
2023-01-11T23:57:03.205Z,1.65
2023-01-11T23:59:30.346Z,1.45
